createdAt,value
2018-05-01T00:00:29.545Z,0.00
2018-05-01T00:01:29.529Z,0.00
2018-05-01T00:02:29.508Z,0.00
2018-05-01T00:03:29.485Z,0.00
2018-05-01T00:04:29.468Z,0.00
2018-05-01T00:05:29.451Z,0.00
2018-05-01T00:06:29.438Z,0.00
2018-05-01T00:07:29.409Z,0.00
2018-05-01T00:08:29.396Z,0.00
2018-05-01T00:09:29.374Z,0.00
2018-05-01T00:10:29.356Z,0.00
2018-05-01T00:11:29.330Z,0.00
2018-05-01T00:12:29.315Z,0.00
2018-05-01T00:13:29.292Z,0.00
2018-05-01T00:14:29.271Z,0.00
2018-05-01T00:15:29.252Z,0.00
2018-05-01T00:16:29.231Z,0.00
2018-05-01T00:17:29.222Z,0.00
2018-05-01T00:18:29.192Z,0.00
2018-05-01T00:19:29.175Z,0.00
2018-05-01T00:20:29.152Z,0.00
2018-05-01T00:21:29.137Z,0.00
2018-05-01T00:22:29.111Z,0.00
2018-05-01T00:23:29.099Z,0.00
2018-05-01T00:24:29.082Z,0.00
2018-05-01T00:25:29.054Z,0.00
2018-05-01T00:26:29.036Z,0.00
2018-05-01T00:27:29.013Z,0.00
2018-05-01T00:28:28.994Z,0.00
2018-05-01T00:29:28.974Z,0.00
2018-05-01T00:30:28.950Z,0.00
2018-05-01T00:31:28.951Z,0.00
2018-05-01T00:32:28.921Z,0.00
2018-05-01T00:33:28.902Z,0.00
2018-05-01T00:34:28.878Z,0.00
2018-05-01T00:35:28.857Z,0.00
2018-05-01T00:36:28.829Z,0.00
2018-05-01T00:37:28.819Z,0.00
2018-05-01T00:38:28.798Z,0.00
2018-05-01T00:39:28.771Z,0.00
2018-05-01T00:40:28.795Z,0.00
2018-05-01T00:41:28.803Z,0.00
2018-05-01T00:42:28.712Z,0.00
2018-05-01T00:43:28.699Z,0.00
2018-05-01T00:44:28.670Z,0.00
2018-05-01T00:45:28.650Z,0.00
2018-05-01T00:46:28.642Z,0.00
2018-05-01T00:47:28.609Z,0.00
2018-05-01T00:48:28.590Z,0.00
2018-05-01T00:49:28.571Z,0.00
2018-05-01T00:50:28.556Z,0.00
2018-05-01T00:51:28.551Z,0.00
2018-05-01T00:52:28.512Z,0.00
2018-05-01T00:53:28.493Z,0.00
2018-05-01T00:54:28.472Z,0.00
2018-05-01T00:55:28.454Z,0.00
2018-05-01T00:56:28.442Z,0.00
2018-05-01T00:57:28.409Z,0.00
2018-05-01T00:58:28.400Z,0.00
2018-05-01T00:59:28.365Z,0.00
2018-05-01T01:00:28.350Z,0.00
2018-05-01T01:01:28.332Z,0.00
2018-05-01T01:02:28.310Z,0.00
2018-05-01T01:03:28.285Z,0.00
2018-05-01T01:04:28.265Z,0.00
2018-05-01T01:05:28.249Z,0.00
2018-05-01T01:06:28.227Z,0.00
2018-05-01T01:07:28.207Z,0.00
2018-05-01T01:08:28.181Z,0.00
2018-05-01T01:09:28.165Z,0.00
2018-05-01T01:10:28.145Z,0.00
2018-05-01T01:11:28.125Z,0.00
2018-05-01T01:12:28.104Z,0.00
2018-05-01T01:13:28.089Z,0.00
2018-05-01T01:14:28.069Z,0.00
2018-05-01T01:15:28.043Z,0.00
2018-05-01T01:16:28.026Z,0.00
2018-05-01T01:17:28.017Z,0.00
2018-05-01T01:18:27.984Z,0.00
2018-05-01T01:19:27.975Z,0.00
2018-05-01T01:20:27.944Z,0.00
2018-05-01T01:21:27.925Z,0.00
2018-05-01T01:22:27.903Z,0.00
2018-05-01T01:23:27.879Z,0.00
2018-05-01T01:24:27.907Z,0.00
2018-05-01T01:25:27.937Z,0.00
2018-05-01T01:26:27.933Z,0.00
2018-05-01T01:27:28.814Z,0.00
2018-05-01T01:28:27.910Z,0.00
2018-05-01T01:29:27.845Z,0.00
2018-05-01T01:30:48.744Z,0.00
2018-05-01T01:31:27.721Z,0.00
2018-05-01T01:32:27.703Z,0.00
2018-05-01T01:33:27.687Z,0.00
2018-05-01T01:34:27.661Z,0.00
2018-05-01T01:35:27.644Z,0.00
2018-05-01T01:36:27.630Z,0.00
2018-05-01T01:37:27.609Z,0.00
2018-05-01T01:38:27.580Z,0.00
2018-05-01T01:39:27.562Z,0.00
2018-05-01T01:40:27.538Z,0.00
2018-05-01T01:41:27.538Z,0.00
2018-05-01T01:42:27.496Z,0.00
2018-05-01T01:43:27.476Z,0.00
2018-05-01T01:44:27.457Z,0.00
2018-05-01T01:45:27.439Z,0.00
2018-05-01T01:46:27.422Z,0.00
2018-05-01T01:47:27.396Z,0.00
2018-05-01T01:48:28.059Z,0.00
2018-05-01T01:49:27.365Z,0.00
2018-05-01T01:50:27.339Z,0.00
2018-05-01T01:51:27.324Z,0.00
2018-05-01T01:52:27.297Z,0.00
2018-05-01T01:53:27.280Z,0.00
2018-05-01T01:54:27.266Z,0.00
2018-05-01T01:55:27.233Z,0.00
2018-05-01T01:56:27.215Z,0.00
2018-05-01T01:57:27.198Z,0.00
2018-05-01T01:58:27.175Z,0.00
2018-05-01T01:59:27.152Z,0.00
2018-05-01T02:00:27.144Z,0.00
2018-05-01T02:01:27.112Z,0.00
2018-05-01T02:02:27.098Z,0.00
2018-05-01T02:03:27.069Z,0.00
2018-05-01T02:04:27.051Z,0.00
2018-05-01T02:05:27.041Z,0.00
2018-05-01T02:06:27.011Z,0.00
2018-05-01T02:07:26.992Z,0.00
2018-05-01T02:08:27.015Z,0.00
2018-05-01T02:09:27.238Z,0.00
2018-05-01T02:10:26.940Z,0.00
2018-05-01T02:11:26.906Z,0.00
2018-05-01T02:12:26.893Z,0.00
2018-05-01T02:13:26.869Z,0.00
2018-05-01T02:14:26.849Z,0.00
2018-05-01T02:15:26.832Z,0.00
2018-05-01T02:16:26.809Z,0.00
2018-05-01T02:17:26.784Z,0.00
2018-05-01T02:18:26.763Z,0.00
2018-05-01T02:19:26.748Z,0.00
2018-05-01T02:20:26.720Z,0.00
2018-05-01T02:21:26.702Z,0.00
2018-05-01T02:22:26.684Z,0.00
2018-05-01T02:23:26.672Z,0.00
2018-05-01T02:24:26.641Z,0.00
2018-05-01T02:25:26.623Z,0.00
2018-05-01T02:26:26.601Z,0.00
2018-05-01T02:27:26.600Z,0.00
2018-05-01T02:28:26.557Z,0.00
2018-05-01T02:29:26.536Z,0.00
2018-05-01T02:30:26.654Z,0.00
2018-05-01T02:31:26.495Z,0.00
2018-05-01T02:32:26.471Z,0.00
2018-05-01T02:33:26.454Z,0.00
2018-05-01T02:34:26.450Z,0.00
2018-05-01T02:35:26.412Z,0.00
2018-05-01T02:36:26.394Z,0.00
2018-05-01T02:37:26.378Z,0.00
2018-05-01T02:38:26.352Z,0.00
2018-05-01T02:39:26.330Z,0.00
2018-05-01T02:40:26.310Z,0.00
2018-05-01T02:41:26.298Z,0.00
2018-05-01T02:42:26.283Z,0.00
2018-05-01T02:43:26.246Z,0.00
2018-05-01T02:44:26.225Z,0.00
2018-05-01T02:45:26.205Z,0.00
2018-05-01T02:46:26.215Z,0.00
2018-05-01T02:47:26.166Z,0.00
2018-05-01T02:48:26.141Z,0.00
2018-05-01T02:49:26.126Z,0.00
2018-05-01T02:50:26.101Z,0.00
2018-05-01T02:51:26.128Z,0.00
2018-05-01T02:52:26.061Z,0.00
2018-05-01T02:53:26.067Z,0.00
2018-05-01T02:54:26.021Z,0.00
2018-05-01T02:55:25.998Z,0.00
2018-05-01T02:56:25.975Z,0.00
2018-05-01T02:57:25.968Z,0.00
2018-05-01T02:58:25.950Z,0.00
2018-05-01T02:59:25.960Z,0.00
2018-05-01T03:00:25.981Z,0.00
2018-05-01T03:01:25.965Z,0.00
2018-05-01T03:02:25.927Z,0.00
2018-05-01T03:03:25.893Z,0.00
2018-05-01T03:04:25.855Z,0.00
2018-05-01T03:05:25.808Z,0.00
2018-05-01T03:06:25.781Z,0.00
2018-05-01T03:07:25.747Z,0.00
2018-05-01T03:08:25.733Z,0.00
2018-05-01T03:09:25.709Z,0.00
2018-05-01T03:10:25.687Z,0.00
2018-05-01T03:11:25.666Z,0.00
2018-05-01T03:12:25.645Z,0.00
2018-05-01T03:13:25.620Z,0.00
2018-05-01T03:14:25.601Z,0.00
2018-05-01T03:15:25.580Z,0.00
2018-05-01T03:16:25.563Z,0.00
2018-05-01T03:17:25.544Z,0.00
2018-05-01T03:18:25.521Z,0.00
2018-05-01T03:19:25.502Z,0.00
2018-05-01T03:20:25.473Z,0.00
2018-05-01T03:21:25.453Z,0.00
2018-05-01T03:22:25.433Z,0.00
2018-05-01T03:23:25.430Z,0.00
2018-05-01T03:24:25.390Z,0.00
2018-05-01T03:25:25.450Z,0.00
2018-05-01T03:26:25.361Z,0.00
2018-05-01T03:27:25.330Z,0.00
2018-05-01T03:28:25.314Z,0.00
2018-05-01T03:29:25.290Z,0.00
2018-05-01T03:30:25.267Z,0.00
2018-05-01T03:31:25.251Z,0.00
2018-05-01T03:32:25.253Z,0.00
2018-05-01T03:33:25.206Z,0.00
2018-05-01T03:34:25.230Z,0.00
2018-05-01T03:35:25.162Z,4.00
2018-05-01T03:36:25.143Z,4.00
2018-05-01T03:37:25.120Z,4.00
2018-05-01T03:38:25.100Z,0.00
2018-05-01T03:39:25.080Z,4.00
2018-05-01T03:40:25.061Z,4.00
2018-05-01T03:41:25.042Z,4.00
2018-05-01T03:42:25.031Z,4.00
2018-05-01T03:43:25.046Z,4.00
2018-05-01T03:44:24.989Z,4.00
2018-05-01T03:45:24.952Z,4.00
2018-05-01T03:46:24.930Z,8.00
2018-05-01T03:47:24.916Z,4.00
2018-05-01T03:48:24.892Z,8.00
2018-05-01T03:49:24.869Z,8.00
2018-05-01T03:50:24.845Z,12.00
2018-05-01T03:51:24.832Z,8.00
2018-05-01T03:52:24.803Z,12.00
2018-05-01T03:53:24.784Z,8.00
2018-05-01T03:54:24.763Z,12.00
2018-05-01T03:55:24.743Z,12.00
2018-05-01T03:56:24.719Z,16.00
2018-05-01T03:57:24.704Z,16.00
2018-05-01T03:58:24.687Z,12.00
2018-05-01T03:59:24.661Z,16.00
2018-05-01T04:00:24.649Z,16.00
2018-05-01T04:01:39.226Z,16.00
2018-05-01T04:02:24.602Z,16.00
2018-05-01T04:03:24.576Z,16.00
2018-05-01T04:04:24.557Z,20.00
2018-05-01T04:05:24.538Z,20.00
2018-05-01T04:06:24.520Z,24.00
2018-05-01T04:07:24.501Z,24.00
2018-05-01T04:08:24.478Z,28.00
2018-05-01T04:09:24.452Z,24.00
2018-05-01T04:10:24.437Z,28.00
2018-05-01T04:11:24.410Z,28.00
2018-05-01T04:12:24.391Z,32.00
2018-05-01T04:13:24.372Z,32.00
2018-05-01T04:14:24.388Z,28.00
2018-05-01T04:15:24.330Z,32.00
2018-05-01T04:16:24.313Z,32.00
2018-05-01T04:17:24.330Z,36.00
2018-05-01T04:18:24.311Z,40.00
2018-05-01T04:19:24.247Z,40.00
2018-05-01T04:20:24.227Z,40.00
2018-05-01T04:21:24.201Z,40.00
2018-05-01T04:22:24.185Z,44.00
2018-05-01T04:23:24.166Z,44.00
2018-05-01T04:24:24.141Z,44.00
2018-05-01T04:25:24.148Z,44.00
2018-05-01T04:26:24.103Z,44.00
2018-05-01T04:27:24.084Z,48.00
2018-05-01T04:28:24.059Z,48.00
2018-05-01T04:29:24.040Z,48.00
2018-05-01T04:30:24.028Z,52.00
2018-05-01T04:31:24.032Z,52.00
2018-05-01T04:33:58.701Z,60.00
2018-05-01T04:34:58.599Z,64.00
2018-05-01T04:36:54.637Z,68.00
2018-05-01T04:37:54.553Z,72.00
2018-05-01T04:39:50.541Z,68.00
2018-05-01T04:40:50.453Z,64.00
2018-05-01T04:42:46.520Z,64.00
2018-05-01T04:43:46.343Z,68.00
2018-05-01T04:45:42.461Z,72.00
2018-05-01T04:46:42.407Z,72.00
2018-05-01T04:48:38.419Z,80.00
2018-05-01T04:49:38.331Z,80.00
2018-05-01T04:51:34.845Z,88.00
2018-05-01T04:52:34.694Z,84.00
2018-05-01T04:54:31.749Z,96.00
2018-05-01T04:55:31.593Z,96.00
2018-05-01T04:57:28.497Z,104.00
2018-05-01T04:58:28.363Z,108.00
2018-05-01T04:59:28.347Z,120.00
2018-05-01T05:00:28.319Z,124.00
2018-05-01T05:01:28.291Z,124.00
2018-05-01T05:02:28.274Z,132.00
2018-05-01T05:03:28.263Z,140.00
2018-05-01T05:04:28.279Z,144.00
2018-05-01T05:05:28.206Z,144.00
2018-05-01T05:06:28.196Z,148.00
2018-05-01T05:07:28.171Z,144.00
2018-05-01T05:08:28.158Z,132.00
2018-05-01T05:09:28.189Z,128.00
2018-05-01T05:10:28.106Z,112.00
2018-05-01T05:11:28.079Z,112.00
2018-05-01T05:12:28.067Z,108.00
2018-05-01T05:13:28.069Z,104.00
2018-05-01T05:14:28.070Z,104.00
2018-05-01T05:15:28.079Z,104.00
2018-05-01T05:16:28.050Z,104.00
2018-05-01T05:17:27.988Z,108.00
2018-05-01T05:18:28.036Z,108.00
2018-05-01T05:19:27.909Z,112.00
2018-05-01T05:20:27.887Z,136.00
2018-05-01T05:21:27.874Z,144.00
2018-05-01T05:22:27.862Z,160.00
2018-05-01T05:23:27.823Z,156.00
2018-05-01T05:24:27.802Z,164.00
2018-05-01T05:25:27.785Z,148.00
2018-05-01T05:26:27.761Z,172.00
2018-05-01T05:27:27.745Z,168.00
2018-05-01T05:28:27.726Z,180.00
2018-05-01T05:29:27.708Z,184.00
2018-05-01T05:30:27.677Z,188.00
2018-05-01T05:31:27.656Z,176.00
2018-05-01T05:32:27.639Z,188.00
2018-05-01T05:33:27.684Z,184.00
2018-05-01T05:34:27.591Z,192.00
2018-05-01T05:35:27.575Z,164.00
2018-05-01T05:36:27.550Z,208.00
2018-05-01T05:37:27.531Z,220.00
2018-05-01T05:38:27.515Z,224.00
2018-05-01T05:39:27.539Z,228.00
2018-05-01T05:40:27.488Z,236.00
2018-05-01T05:41:27.444Z,232.00
2018-05-01T05:42:27.426Z,208.00
2018-05-01T05:43:27.426Z,176.00
2018-05-01T05:44:27.384Z,176.00
2018-05-01T05:45:27.359Z,176.00
2018-05-01T05:46:27.340Z,168.00
2018-05-01T05:47:27.320Z,168.00
2018-05-01T05:48:27.296Z,176.00
2018-05-01T05:49:27.278Z,176.00
2018-05-01T05:50:27.253Z,176.00
2018-05-01T05:51:27.248Z,176.00
2018-05-01T05:52:27.207Z,172.00
2018-05-01T05:53:27.187Z,160.00
2018-05-01T05:54:27.190Z,156.00
2018-05-01T05:55:27.160Z,152.00
2018-05-01T05:56:27.130Z,156.00
2018-05-01T05:57:34.062Z,156.00
2018-05-01T05:58:27.088Z,164.00
2018-05-01T05:59:27.064Z,172.00
2018-05-01T06:00:27.038Z,196.00
2018-05-01T06:01:27.019Z,192.00
2018-05-01T06:02:27.016Z,200.00
2018-05-01T06:03:26.975Z,248.00
2018-05-01T06:04:26.954Z,268.00
2018-05-01T06:05:26.934Z,284.00
2018-05-01T06:06:26.924Z,232.00
2018-05-01T06:07:26.890Z,268.00
2018-05-01T06:08:26.868Z,220.00
2018-05-01T06:09:26.846Z,212.00
2018-05-01T06:10:26.824Z,212.00
2018-05-01T06:11:26.803Z,216.00
2018-05-01T06:12:26.786Z,228.00
2018-05-01T06:13:26.842Z,220.00
2018-05-01T06:14:26.738Z,236.00
2018-05-01T06:15:26.719Z,272.00
2018-05-01T06:16:26.702Z,272.00
2018-05-01T06:17:26.675Z,296.00
2018-05-01T06:18:26.652Z,340.00
2018-05-01T06:19:26.636Z,304.00
2018-05-01T06:20:26.659Z,364.00
2018-05-01T06:21:26.590Z,356.00
2018-05-01T06:22:26.583Z,384.00
2018-05-01T06:23:26.545Z,420.00
2018-05-01T06:24:26.542Z,472.00
2018-05-01T06:25:26.501Z,460.00
2018-05-01T06:26:26.482Z,448.00
2018-05-01T06:27:26.461Z,412.00
2018-05-01T06:28:26.440Z,392.00
2018-05-01T06:29:26.423Z,380.00
2018-05-01T06:30:26.396Z,376.00
2018-05-01T06:31:26.391Z,376.00
2018-05-01T06:32:26.354Z,384.00
2018-05-01T06:33:26.335Z,404.00
2018-05-01T06:34:26.310Z,448.00
2018-05-01T06:35:26.293Z,428.00
2018-05-01T06:36:26.272Z,428.00
2018-05-01T06:37:27.241Z,440.00
2018-05-01T06:38:26.231Z,476.00
2018-05-01T06:39:26.210Z,408.00
2018-05-01T06:40:26.186Z,376.00
2018-05-01T06:41:26.176Z,368.00
2018-05-01T06:42:26.161Z,380.00
2018-05-01T06:43:26.153Z,396.00
2018-05-01T06:44:26.176Z,388.00
2018-05-01T06:45:26.171Z,400.00
2018-05-01T06:46:26.214Z,420.00
2018-05-01T06:47:26.073Z,464.00
2018-05-01T06:48:26.015Z,476.00
2018-05-01T06:49:25.995Z,452.00
2018-05-01T06:50:25.976Z,432.00
2018-05-01T06:51:25.952Z,424.00
2018-05-01T06:52:25.929Z,412.00
2018-05-01T06:53:25.906Z,416.00
2018-05-01T06:54:25.890Z,452.00
2018-05-01T06:55:25.871Z,480.00
2018-05-01T06:56:25.862Z,564.00
2018-05-01T06:57:25.828Z,664.00
2018-05-01T07:00:02.147Z,656.00
2018-05-01T07:01:01.904Z,620.00
2018-05-01T07:02:58.978Z,588.00
2018-05-01T07:03:58.802Z,584.00
2018-05-01T07:05:55.836Z,744.00
2018-05-01T07:06:55.777Z,760.00
2018-05-01T07:08:52.814Z,764.00
2018-05-01T07:09:52.691Z,796.00
2018-05-01T07:11:48.705Z,792.00
2018-05-01T07:12:48.618Z,784.00
2018-05-01T07:13:48.601Z,784.00
2018-05-01T07:14:48.578Z,800.00
2018-05-01T07:15:48.606Z,808.00
2018-05-01T07:16:48.548Z,736.00
2018-05-01T07:17:48.899Z,720.00
2018-05-01T07:18:48.497Z,656.00
2018-05-01T07:19:48.466Z,644.00
2018-05-01T07:20:48.447Z,648.00
2018-05-01T07:21:48.428Z,656.00
2018-05-01T07:22:48.403Z,612.00
2018-05-01T07:23:48.382Z,696.00
2018-05-01T07:24:48.369Z,832.00
2018-05-01T07:25:48.338Z,808.00
2018-05-01T07:26:48.315Z,836.00
2018-05-01T07:27:48.298Z,852.00
2018-05-01T07:28:48.273Z,780.00
2018-05-01T07:29:48.262Z,716.00
2018-05-01T07:30:48.235Z,744.00
2018-05-01T07:31:48.208Z,736.00
2018-05-01T07:32:48.196Z,716.00
2018-05-01T07:33:48.195Z,720.00
2018-05-01T07:34:48.199Z,712.00
2018-05-01T07:35:48.204Z,684.00
2018-05-01T07:36:48.177Z,672.00
2018-05-01T07:37:48.108Z,608.00
2018-05-01T07:38:48.161Z,668.00
2018-05-01T07:39:48.040Z,728.00
2018-05-01T07:40:48.030Z,876.00
2018-05-01T07:41:48.042Z,912.00
2018-05-01T07:42:47.993Z,896.00
2018-05-01T07:43:51.043Z,780.00
2018-05-01T07:44:47.950Z,872.00
2018-05-01T07:45:47.920Z,1068.00
2018-05-01T07:46:47.897Z,1080.00
2018-05-01T07:47:47.874Z,920.00
2018-05-01T07:48:47.875Z,764.00
2018-05-01T07:49:47.873Z,676.00
2018-05-01T07:50:47.809Z,632.00
2018-05-01T07:51:47.784Z,620.00
2018-05-01T07:52:47.770Z,652.00
2018-05-01T07:53:47.748Z,668.00
2018-05-01T07:54:47.721Z,988.00
2018-05-01T07:55:47.698Z,916.00
2018-05-01T07:56:47.676Z,784.00
2018-05-01T07:57:47.668Z,648.00
2018-05-01T07:58:47.636Z,788.00
2018-05-01T07:59:47.612Z,948.00
2018-05-01T08:00:47.677Z,944.00
2018-05-01T08:01:47.569Z,812.00
2018-05-01T08:02:47.575Z,648.00
2018-05-01T08:03:47.528Z,632.00
2018-05-01T08:04:47.509Z,592.00
2018-05-01T08:05:47.486Z,572.00
2018-05-01T08:06:47.467Z,568.00
2018-05-01T08:07:47.445Z,564.00
2018-05-01T08:08:47.425Z,564.00
2018-05-01T08:09:47.400Z,576.00
2018-05-01T08:10:47.379Z,600.00
2018-05-01T08:12:08.392Z,624.00
2018-05-01T08:12:47.337Z,616.00
2018-05-01T08:13:47.314Z,648.00
2018-05-01T08:14:47.291Z,648.00
2018-05-01T08:15:47.272Z,664.00
2018-05-01T08:16:47.255Z,684.00
2018-05-01T08:17:47.229Z,704.00
2018-05-01T08:18:47.215Z,716.00
2018-05-01T08:19:47.185Z,720.00
2018-05-01T08:20:47.169Z,752.00
2018-05-01T08:21:47.144Z,756.00
2018-05-01T08:22:47.130Z,768.00
2018-05-01T08:23:47.098Z,768.00
2018-05-01T08:24:47.080Z,772.00
2018-05-01T08:25:47.059Z,764.00
2018-05-01T08:26:47.034Z,760.00
2018-05-01T08:27:47.013Z,764.00
2018-05-01T08:28:46.991Z,768.00
2018-05-01T08:29:46.985Z,772.00
2018-05-01T08:30:46.989Z,784.00
2018-05-01T08:31:46.982Z,796.00
2018-05-01T08:32:46.924Z,800.00
2018-05-01T08:33:46.885Z,804.00
2018-05-01T08:34:46.865Z,812.00
2018-05-01T08:35:46.841Z,820.00
2018-05-01T08:36:46.825Z,828.00
2018-05-01T08:37:46.807Z,840.00
2018-05-01T08:38:46.786Z,856.00
2018-05-01T08:39:46.769Z,840.00
2018-05-01T08:40:46.734Z,848.00
2018-05-01T08:41:46.716Z,860.00
2018-05-01T08:42:49.613Z,832.00
2018-05-01T08:43:46.673Z,872.00
2018-05-01T08:44:46.649Z,868.00
2018-05-01T08:45:46.628Z,900.00
2018-05-01T08:46:46.605Z,812.00
2018-05-01T08:47:46.583Z,912.00
2018-05-01T08:48:46.696Z,820.00
2018-05-01T08:49:46.563Z,1032.00
2018-05-01T08:50:46.529Z,1036.00
2018-05-01T08:51:46.499Z,1052.00
2018-05-01T08:52:46.482Z,1064.00
2018-05-01T08:53:46.457Z,1064.00
2018-05-01T08:54:46.436Z,1048.00
2018-05-01T08:55:46.415Z,1084.00
2018-05-01T08:56:46.398Z,1092.00
2018-05-01T08:57:46.373Z,1100.00
2018-05-01T08:58:46.354Z,1112.00
2018-05-01T08:59:46.331Z,1120.00
2018-05-01T09:00:46.313Z,1128.00
2018-05-01T09:01:46.289Z,1140.00
2018-05-01T09:02:46.292Z,1156.00
2018-05-01T09:03:46.275Z,1168.00
2018-05-01T09:04:46.280Z,1180.00
2018-05-01T09:05:46.281Z,1184.00
2018-05-01T09:06:46.254Z,1200.00
2018-05-01T09:07:46.237Z,1208.00
2018-05-01T09:08:46.144Z,1228.00
2018-05-01T09:09:46.131Z,1256.00
2018-05-01T09:10:46.102Z,1308.00
2018-05-01T09:11:46.085Z,1328.00
2018-05-01T09:12:46.098Z,1336.00
2018-05-01T09:13:46.098Z,1336.00
2018-05-01T09:14:46.023Z,1348.00
2018-05-01T09:15:46.001Z,1360.00
2018-05-01T09:16:45.983Z,1380.00
2018-05-01T09:17:46.071Z,1380.00
2018-05-01T09:18:45.939Z,1392.00
2018-05-01T09:19:45.921Z,1404.00
2018-05-01T09:20:45.893Z,1408.00
2018-05-01T09:21:45.879Z,1428.00
2018-05-01T09:22:45.853Z,1440.00
2018-05-01T09:23:45.836Z,1460.00
2018-05-01T09:24:45.821Z,1484.00
2018-05-01T09:25:45.795Z,1500.00
2018-05-01T09:26:45.773Z,1504.00
2018-05-01T09:27:45.752Z,1536.00
2018-05-01T09:28:45.739Z,1560.00
2018-05-01T09:29:45.713Z,1588.00
2018-05-01T09:30:45.692Z,1620.00
2018-05-01T09:31:45.673Z,1668.00
2018-05-01T09:32:45.659Z,1704.00
2018-05-01T09:33:45.647Z,1740.00
2018-05-01T09:34:45.625Z,1840.00
2018-05-01T09:35:45.590Z,1932.00
2018-05-01T09:36:45.580Z,2000.00
2018-05-01T09:37:45.555Z,2092.00
2018-05-01T09:38:45.541Z,2180.00
2018-05-01T09:39:45.511Z,2244.00
2018-05-01T09:40:45.503Z,2376.00
2018-05-01T09:41:45.473Z,2488.00
2018-05-01T09:42:45.474Z,2560.00
2018-05-01T09:43:45.449Z,2620.00
2018-05-01T09:44:45.416Z,2588.00
2018-05-01T09:45:45.395Z,2560.00
2018-05-01T09:46:45.384Z,2648.00
2018-05-01T09:47:45.356Z,2660.00
2018-05-01T09:48:45.344Z,2708.00
2018-05-01T09:49:45.319Z,2580.00
2018-05-01T09:50:45.298Z,2692.00
2018-05-01T09:51:45.281Z,2744.00
2018-05-01T09:52:45.264Z,2800.00
2018-05-01T09:53:45.243Z,2840.00
2018-05-01T09:54:45.255Z,2912.00
2018-05-01T09:55:45.229Z,3008.00
2018-05-01T09:56:45.188Z,3068.00
2018-05-01T09:57:45.213Z,3084.00
2018-05-01T09:58:45.273Z,3100.00
2018-05-01T09:59:45.135Z,3260.00
2018-05-01T10:00:45.122Z,3416.00
2018-05-01T10:01:45.159Z,3640.00
2018-05-01T10:02:45.078Z,3764.00
2018-05-01T10:03:45.055Z,3844.00
2018-05-01T10:04:45.043Z,4012.00
2018-05-01T10:05:45.027Z,4240.00
2018-05-01T10:06:45.012Z,4324.00
2018-05-01T10:07:44.983Z,4448.00
2018-05-01T10:08:44.970Z,4664.00
2018-05-01T10:09:44.960Z,2080.00
2018-05-01T10:10:44.942Z,4124.00
2018-05-01T10:11:44.911Z,4884.00
2018-05-01T10:12:44.894Z,5028.00
2018-05-01T10:13:44.876Z,1556.00
2018-05-01T10:14:44.862Z,4716.00
2018-05-01T10:15:44.839Z,5048.00
2018-05-01T10:16:44.831Z,5140.00
2018-05-01T10:17:44.814Z,5292.00
2018-05-01T10:18:44.815Z,5180.00
2018-05-01T10:19:44.767Z,5120.00
2018-05-01T10:20:44.756Z,5160.00
2018-05-01T10:21:44.731Z,5300.00
2018-05-01T10:22:44.724Z,5440.00
2018-05-01T10:23:44.708Z,5540.00
2018-05-01T10:24:44.679Z,5544.00
2018-05-01T10:25:44.667Z,5564.00
2018-05-01T10:26:44.644Z,5644.00
2018-05-01T10:27:44.628Z,5696.00
2018-05-01T10:28:44.679Z,5808.00
2018-05-01T10:29:44.592Z,6040.00
2018-05-01T10:30:44.578Z,6024.00
2018-05-01T10:31:44.564Z,6120.00
2018-05-01T10:32:44.546Z,6160.00
2018-05-01T10:33:44.530Z,6220.00
2018-05-01T10:34:44.527Z,6344.00
2018-05-01T10:35:44.492Z,6484.00
2018-05-01T10:36:44.475Z,6704.00
2018-05-01T10:37:44.462Z,6956.00
2018-05-01T10:38:44.551Z,7084.00
2018-05-01T10:39:44.429Z,11072.00
2018-05-01T10:40:44.409Z,36416.00
2018-05-01T10:41:44.404Z,65184.00
2018-05-01T10:42:44.435Z,63616.00
2018-05-01T10:43:44.426Z,35968.00
2018-05-01T10:44:44.429Z,9592.00
2018-05-01T10:45:44.442Z,7804.00
2018-05-01T10:46:44.428Z,8744.00
2018-05-01T10:47:44.379Z,13108.00
2018-05-01T10:48:44.366Z,12240.00
2018-05-01T10:49:44.399Z,11688.00
2018-05-01T10:50:44.395Z,9484.00
2018-05-01T10:51:44.231Z,7256.00
2018-05-01T10:52:44.232Z,7256.00
2018-05-01T10:53:44.336Z,7820.00
2018-05-01T10:54:44.252Z,9364.00
2018-05-01T10:55:44.172Z,9000.00
2018-05-01T10:56:44.163Z,10172.00
2018-05-01T10:57:44.137Z,10632.00
2018-05-01T10:58:44.127Z,9004.00
2018-05-01T10:59:44.115Z,11412.00
2018-05-01T11:00:44.087Z,8164.00
2018-05-01T11:01:44.083Z,7356.00
2018-05-01T11:02:44.057Z,7184.00
2018-05-01T11:03:44.039Z,7112.00
2018-05-01T11:04:44.024Z,7152.00
2018-05-01T11:05:44.010Z,7484.00
2018-05-01T11:06:43.993Z,23296.00
2018-05-01T11:07:44.022Z,26624.00
2018-05-01T11:08:43.964Z,99648.00
2018-05-01T11:09:43.953Z,92288.00
2018-05-01T11:10:43.936Z,52000.00
2018-05-01T11:11:43.925Z,15968.00
2018-05-01T11:12:43.902Z,10508.00
2018-05-01T11:13:43.887Z,29344.00
2018-05-01T11:14:43.869Z,64256.00
2018-05-01T11:15:43.850Z,70720.00
2018-05-01T11:16:43.837Z,40256.00
2018-05-01T11:17:43.818Z,13172.00
2018-05-01T11:18:43.807Z,8240.00
2018-05-01T11:19:43.822Z,7052.00
2018-05-01T11:20:43.769Z,7088.00
2018-05-01T11:21:43.758Z,6932.00
2018-05-01T11:22:43.739Z,6720.00
2018-05-01T11:23:43.720Z,6548.00
2018-05-01T11:24:43.710Z,3756.00
2018-05-01T11:25:43.696Z,6832.00
2018-05-01T11:26:43.673Z,5336.00
2018-05-01T11:27:43.652Z,6160.00
2018-05-01T11:28:43.637Z,6044.00
2018-05-01T11:29:43.621Z,2452.00
2018-05-01T11:30:43.638Z,2644.00
2018-05-01T11:31:43.589Z,6108.00
2018-05-01T11:32:43.573Z,5608.00
2018-05-01T11:33:43.617Z,5548.00
2018-05-01T11:34:43.553Z,5564.00
2018-05-01T11:35:43.522Z,5656.00
2018-05-01T11:36:43.504Z,5780.00
2018-05-01T11:37:43.489Z,5800.00
2018-05-01T11:38:43.481Z,1568.00
2018-05-01T11:39:43.458Z,5432.00
2018-05-01T11:40:43.478Z,5772.00
2018-05-01T11:41:43.477Z,5564.00
2018-05-01T11:42:43.408Z,4516.00
2018-05-01T11:43:43.395Z,4940.00
2018-05-01T11:44:43.371Z,4872.00
2018-05-01T11:45:43.355Z,1420.00
2018-05-01T11:46:43.358Z,1248.00
2018-05-01T11:47:43.335Z,4080.00
2018-05-01T11:48:43.361Z,1256.00
2018-05-01T11:49:43.290Z,780.00
2018-05-01T11:50:43.279Z,904.00
2018-05-01T11:51:43.262Z,1048.00
2018-05-01T11:52:43.243Z,1656.00
2018-05-01T11:53:43.262Z,2536.00
2018-05-01T11:54:43.213Z,800.00
2018-05-01T11:55:43.194Z,768.00
2018-05-01T11:56:43.174Z,920.00
2018-05-01T11:57:43.158Z,1148.00
2018-05-01T11:58:44.065Z,1220.00
2018-05-01T11:59:43.123Z,4564.00
2018-05-01T12:00:43.131Z,1380.00
2018-05-01T12:01:43.086Z,1068.00
2018-05-01T12:02:43.160Z,876.00
2018-05-01T12:03:43.049Z,4244.00
2018-05-01T12:04:43.036Z,3932.00
2018-05-01T12:05:43.016Z,700.00
2018-05-01T12:06:42.998Z,2892.00
2018-05-01T12:07:42.990Z,816.00
2018-05-01T12:08:43.002Z,1924.00
2018-05-01T12:09:42.950Z,3784.00
2018-05-01T12:10:42.934Z,3668.00
2018-05-01T12:11:42.913Z,3612.00
2018-05-01T12:12:42.897Z,3568.00
2018-05-01T12:13:42.876Z,3536.00
2018-05-01T12:14:42.856Z,3480.00
2018-05-01T12:15:42.838Z,3456.00
2018-05-01T12:16:42.817Z,3428.00
2018-05-01T12:17:42.800Z,3396.00
2018-05-01T12:18:42.875Z,3396.00
2018-05-01T12:19:43.358Z,3348.00
2018-05-01T12:20:42.750Z,3312.00
2018-05-01T12:21:42.726Z,3248.00
2018-05-01T12:22:42.710Z,3204.00
2018-05-01T12:23:42.706Z,3196.00
2018-05-01T12:24:42.677Z,3188.00
2018-05-01T12:25:42.664Z,3140.00
2018-05-01T12:26:42.660Z,3032.00
2018-05-01T12:27:42.650Z,2984.00
2018-05-01T12:28:42.603Z,3008.00
2018-05-01T12:29:42.626Z,2964.00
2018-05-01T12:30:42.603Z,2876.00
2018-05-01T12:31:42.543Z,2816.00
2018-05-01T12:32:42.532Z,2800.00
2018-05-01T12:33:42.514Z,2772.00
2018-05-01T12:34:42.491Z,2700.00
2018-05-01T12:35:42.496Z,2604.00
2018-05-01T12:36:42.554Z,2576.00
2018-05-01T12:37:42.500Z,2516.00
2018-05-01T12:38:42.497Z,2528.00
2018-05-01T12:39:42.445Z,2496.00
2018-05-01T12:40:42.628Z,2368.00
2018-05-01T12:41:42.433Z,2316.00
2018-05-01T12:42:42.347Z,2216.00
2018-05-01T12:43:42.326Z,2188.00
2018-05-01T12:44:42.311Z,2248.00
2018-05-01T12:45:42.292Z,2172.00
2018-05-01T12:46:42.305Z,2320.00
2018-05-01T12:47:42.252Z,860.00
2018-05-01T12:48:42.235Z,2256.00
2018-05-01T12:49:42.216Z,828.00
2018-05-01T12:50:42.199Z,1876.00